sensor_id;sensor_type;location;lat;lon;timestamp;P1;durP1;ratioP1;P2;durP2;ratioP2
21806;SDS011;11065;50.786;7.840;2022-09-27T00:00:59;2.80;;;1.00;;
21806;SDS011;11065;50.786;7.840;2022-09-27T00:03:26;3.27;;;0.97;;
21806;SDS011;11065;50.786;7.840;2022-09-27T00:08:55;3.20;;;0.80;;
21806;SDS011;11065;50.786;7.840;2022-09-27T00:11:24;3.17;;;0.97;;
21806;SDS011;11065;50.786;7.840;2022-09-27T00:13:53;3.17;;;0.90;;
21806;SDS011;11065;50.786;7.840;2022-09-27T00:16:22;3.60;;;0.90;;
21806;SDS011;11065;50.786;7.840;2022-09-27T00:18:50;2.23;;;0.80;;
21806;SDS011;11065;50.786;7.840;2022-09-27T00:21:18;1.90;;;0.70;;
21806;SDS011;11065;50.786;7.840;2022-09-27T00:23:45;2.23;;;0.83;;
21806;SDS011;11065;50.786;7.840;2022-09-27T00:26:12;2.80;;;0.90;;
21806;SDS011;11065;50.786;7.840;2022-09-27T00:28:39;3.13;;;1.10;;
21806;SDS011;11065;50.786;7.840;2022-09-27T00:31:13;3.07;;;1.03;;
21806;SDS011;11065;50.786;7.840;2022-09-27T00:33:47;2.67;;;1.00;;
21806;SDS011;11065;50.786;7.840;2022-09-27T00:36:16;2.30;;;0.80;;
21806;SDS011;11065;50.786;7.840;2022-09-27T00:38:43;1.63;;;0.80;;
21806;SDS011;11065;50.786;7.840;2022-09-27T00:41:18;2.73;;;0.80;;
21806;SDS011;11065;50.786;7.840;2022-09-27T00:43:51;2.10;;;0.70;;
21806;SDS011;11065;50.786;7.840;2022-09-27T00:46:22;2.73;;;0.80;;
21806;SDS011;11065;50.786;7.840;2022-09-27T00:49:16;2.60;;;0.83;;
21806;SDS011;11065;50.786;7.840;2022-09-27T00:51:55;2.50;;;0.80;;
21806;SDS011;11065;50.786;7.840;2022-09-27T00:54:27;2.53;;;0.63;;
21806;SDS011;11065;50.786;7.840;2022-09-27T00:56:55;2.10;;;0.70;;
21806;SDS011;11065;50.786;7.840;2022-09-27T01:02:03;2.00;;;0.80;;
21806;SDS011;11065;50.786;7.840;2022-09-27T01:04:31;3.07;;;0.90;;
21806;SDS011;11065;50.786;7.840;2022-09-27T01:06:59;3.53;;;1.17;;
21806;SDS011;11065;50.786;7.840;2022-09-27T01:09:26;2.47;;;0.80;;
21806;SDS011;11065;50.786;7.840;2022-09-27T01:15:06;2.43;;;0.87;;
21806;SDS011;11065;50.786;7.840;2022-09-27T01:23:59;1.70;;;0.83;;
21806;SDS011;11065;50.786;7.840;2022-09-27T01:29:32;1.13;;;0.60;;
21806;SDS011;11065;50.786;7.840;2022-09-27T01:38:29;1.47;;;0.93;;
21806;SDS011;11065;50.786;7.840;2022-09-27T01:41:15;2.33;;;0.70;;
21806;SDS011;11065;50.786;7.840;2022-09-27T01:44:16;2.47;;;0.90;;
21806;SDS011;11065;50.786;7.840;2022-09-27T01:47:17;1.33;;;0.80;;
21806;SDS011;11065;50.786;7.840;2022-09-27T01:49:56;2.37;;;0.97;;
21806;SDS011;11065;50.786;7.840;2022-09-27T01:52:37;2.03;;;0.80;;
21806;SDS011;11065;50.786;7.840;2022-09-27T01:55:09;2.07;;;0.70;;
21806;SDS011;11065;50.786;7.840;2022-09-27T01:58:01;1.80;;;0.90;;
21806;SDS011;11065;50.786;7.840;2022-09-27T02:00:37;1.87;;;0.93;;
21806;SDS011;11065;50.786;7.840;2022-09-27T02:03:10;2.77;;;0.97;;
21806;SDS011;11065;50.786;7.840;2022-09-27T02:06:06;1.33;;;0.80;;
21806;SDS011;11065;50.786;7.840;2022-09-27T02:12:20;2.03;;;0.87;;
21806;SDS011;11065;50.786;7.840;2022-09-27T02:14:56;2.57;;;1.00;;
21806;SDS011;11065;50.786;7.840;2022-09-27T02:26:02;1.10;;;0.80;;
21806;SDS011;11065;50.786;7.840;2022-09-27T02:28:52;2.87;;;1.10;;
21806;SDS011;11065;50.786;7.840;2022-09-27T02:31:32;1.57;;;1.10;;
21806;SDS011;11065;50.786;7.840;2022-09-27T02:34:02;1.80;;;1.23;;
21806;SDS011;11065;50.786;7.840;2022-09-27T02:36:39;2.23;;;1.30;;
21806;SDS011;11065;50.786;7.840;2022-09-27T02:39:06;1.20;;;0.93;;
21806;SDS011;11065;50.786;7.840;2022-09-27T02:41:34;3.17;;;1.13;;
21806;SDS011;11065;50.786;7.840;2022-09-27T02:44:03;3.37;;;1.53;;
21806;SDS011;11065;50.786;7.840;2022-09-27T02:52:38;2.80;;;1.90;;
21806;SDS011;11065;50.786;7.840;2022-09-27T02:59:23;1.93;;;1.10;;
21806;SDS011;11065;50.786;7.840;2022-09-27T03:02:19;1.77;;;1.43;;
21806;SDS011;11065;50.786;7.840;2022-09-27T03:05:28;1.87;;;1.00;;
21806;SDS011;11065;50.786;7.840;2022-09-27T03:07:59;1.87;;;1.13;;
21806;SDS011;11065;50.786;7.840;2022-09-27T03:10:27;1.63;;;1.13;;
21806;SDS011;11065;50.786;7.840;2022-09-27T03:12:55;1.70;;;0.93;;
21806;SDS011;11065;50.786;7.840;2022-09-27T03:15:24;2.00;;;1.10;;
21806;SDS011;11065;50.786;7.840;2022-09-27T03:18:16;2.10;;;1.00;;
21806;SDS011;11065;50.786;7.840;2022-09-27T03:21:13;1.57;;;1.10;;
21806;SDS011;11065;50.786;7.840;2022-09-27T03:23:39;1.93;;;0.90;;
21806;SDS011;11065;50.786;7.840;2022-09-27T03:26:06;1.60;;;0.90;;
21806;SDS011;11065;50.786;7.840;2022-09-27T03:28:38;2.03;;;1.30;;
21806;SDS011;11065;50.786;7.840;2022-09-27T03:31:05;3.97;;;1.27;;
21806;SDS011;11065;50.786;7.840;2022-09-27T03:33:48;1.13;;;0.77;;
21806;SDS011;11065;50.786;7.840;2022-09-27T03:36:16;2.60;;;0.83;;
21806;SDS011;11065;50.786;7.840;2022-09-27T03:38:43;2.73;;;1.10;;
21806;SDS011;11065;50.786;7.840;2022-09-27T03:41:14;0.60;;;0.60;;
21806;SDS011;11065;50.786;7.840;2022-09-27T03:43:41;1.73;;;0.90;;
21806;SDS011;11065;50.786;7.840;2022-09-27T03:46:09;1.20;;;0.83;;
21806;SDS011;11065;50.786;7.840;2022-09-27T03:48:35;1.07;;;0.70;;
21806;SDS011;11065;50.786;7.840;2022-09-27T03:51:02;1.63;;;0.70;;
21806;SDS011;11065;50.786;7.840;2022-09-27T03:53:30;2.00;;;0.90;;
21806;SDS011;11065;50.786;7.840;2022-09-27T03:55:57;1.63;;;0.90;;
21806;SDS011;11065;50.786;7.840;2022-09-27T03:58:24;1.93;;;1.10;;
21806;SDS011;11065;50.786;7.840;2022-09-27T04:00:50;0.97;;;0.67;;
21806;SDS011;11065;50.786;7.840;2022-09-27T04:03:17;1.67;;;0.73;;
21806;SDS011;11065;50.786;7.840;2022-09-27T04:06:07;1.53;;;0.70;;
21806;SDS011;11065;50.786;7.840;2022-09-27T04:08:41;1.63;;;0.90;;
21806;SDS011;11065;50.786;7.840;2022-09-27T04:11:09;1.10;;;0.77;;
21806;SDS011;11065;50.786;7.840;2022-09-27T04:13:38;1.23;;;0.73;;
21806;SDS011;11065;50.786;7.840;2022-09-27T04:16:05;2.03;;;0.90;;
21806;SDS011;11065;50.786;7.840;2022-09-27T04:18:39;2.73;;;0.83;;
21806;SDS011;11065;50.786;7.840;2022-09-27T04:21:41;1.33;;;0.70;;
21806;SDS011;11065;50.786;7.840;2022-09-27T04:24:09;1.27;;;0.80;;
21806;SDS011;11065;50.786;7.840;2022-09-27T04:26:40;1.77;;;0.87;;
21806;SDS011;11065;50.786;7.840;2022-09-27T04:29:11;1.87;;;0.77;;
21806;SDS011;11065;50.786;7.840;2022-09-27T04:31:45;2.27;;;0.90;;
21806;SDS011;11065;50.786;7.840;2022-09-27T04:34:48;2.30;;;0.63;;
21806;SDS011;11065;50.786;7.840;2022-09-27T04:37:33;1.37;;;0.80;;
21806;SDS011;11065;50.786;7.840;2022-09-27T04:40:02;2.17;;;0.87;;
21806;SDS011;11065;50.786;7.840;2022-09-27T04:42:32;1.37;;;0.87;;
21806;SDS011;11065;50.786;7.840;2022-09-27T04:44:59;1.83;;;0.87;;
21806;SDS011;11065;50.786;7.840;2022-09-27T04:47:26;1.73;;;0.90;;
21806;SDS011;11065;50.786;7.840;2022-09-27T04:49:53;1.77;;;0.83;;
21806;SDS011;11065;50.786;7.840;2022-09-27T04:52:20;1.83;;;0.90;;
21806;SDS011;11065;50.786;7.840;2022-09-27T04:54:47;1.47;;;0.77;;
21806;SDS011;11065;50.786;7.840;2022-09-27T04:57:15;2.23;;;0.87;;
21806;SDS011;11065;50.786;7.840;2022-09-27T04:59:42;1.97;;;1.00;;
21806;SDS011;11065;50.786;7.840;2022-09-27T05:02:10;1.80;;;0.97;;
21806;SDS011;11065;50.786;7.840;2022-09-27T05:04:55;3.23;;;1.03;;
21806;SDS011;11065;50.786;7.840;2022-09-27T05:07:27;1.80;;;1.00;;
21806;SDS011;11065;50.786;7.840;2022-09-27T05:10:01;1.30;;;0.80;;
21806;SDS011;11065;50.786;7.840;2022-09-27T05:12:28;1.20;;;0.83;;
21806;SDS011;11065;50.786;7.840;2022-09-27T05:14:58;1.47;;;0.93;;
21806;SDS011;11065;50.786;7.840;2022-09-27T05:17:57;2.67;;;1.10;;
21806;SDS011;11065;50.786;7.840;2022-09-27T05:20:59;1.80;;;1.00;;
21806;SDS011;11065;50.786;7.840;2022-09-27T05:23:32;2.63;;;0.90;;
21806;SDS011;11065;50.786;7.840;2022-09-27T05:26:05;2.07;;;1.10;;
21806;SDS011;11065;50.786;7.840;2022-09-27T05:28:33;2.03;;;1.03;;
21806;SDS011;11065;50.786;7.840;2022-09-27T05:31:00;1.43;;;1.03;;
21806;SDS011;11065;50.786;7.840;2022-09-27T05:33:28;2.13;;;1.10;;
21806;SDS011;11065;50.786;7.840;2022-09-27T05:36:15;1.57;;;1.07;;
21806;SDS011;11065;50.786;7.840;2022-09-27T05:38:42;1.10;;;1.00;;
21806;SDS011;11065;50.786;7.840;2022-09-27T05:41:09;1.87;;;1.20;;
21806;SDS011;11065;50.786;7.840;2022-09-27T05:43:38;2.03;;;1.40;;
21806;SDS011;11065;50.786;7.840;2022-09-27T05:46:04;2.70;;;1.23;;
21806;SDS011;11065;50.786;7.840;2022-09-27T05:48:32;2.13;;;1.30;;
21806;SDS011;11065;50.786;7.840;2022-09-27T05:51:04;2.80;;;1.60;;
21806;SDS011;11065;50.786;7.840;2022-09-27T05:53:34;2.60;;;1.47;;
21806;SDS011;11065;50.786;7.840;2022-09-27T05:56:04;2.47;;;1.23;;
21806;SDS011;11065;50.786;7.840;2022-09-27T05:58:57;1.90;;;1.27;;
21806;SDS011;11065;50.786;7.840;2022-09-27T06:01:30;3.43;;;1.30;;
21806;SDS011;11065;50.786;7.840;2022-09-27T06:04:16;1.30;;;1.20;;
21806;SDS011;11065;50.786;7.840;2022-09-27T06:07:03;2.00;;;1.10;;
21806;SDS011;11065;50.786;7.840;2022-09-27T06:09:30;2.27;;;1.23;;
21806;SDS011;11065;50.786;7.840;2022-09-27T06:11:57;2.50;;;1.20;;
21806;SDS011;11065;50.786;7.840;2022-09-27T06:14:24;3.00;;;1.57;;
21806;SDS011;11065;50.786;7.840;2022-09-27T06:16:59;3.87;;;1.63;;
21806;SDS011;11065;50.786;7.840;2022-09-27T06:19:30;2.67;;;1.60;;
21806;SDS011;11065;50.786;7.840;2022-09-27T06:21:57;2.17;;;1.40;;
21806;SDS011;11065;50.786;7.840;2022-09-27T06:24:32;1.53;;;1.13;;
21806;SDS011;11065;50.786;7.840;2022-09-27T06:27:05;3.73;;;1.80;;
21806;SDS011;11065;50.786;7.840;2022-09-27T06:29:43;2.37;;;1.53;;
21806;SDS011;11065;50.786;7.840;2022-09-27T06:32:18;2.37;;;1.40;;
21806;SDS011;11065;50.786;7.840;2022-09-27T06:34:51;2.40;;;1.60;;
21806;SDS011;11065;50.786;7.840;2022-09-27T06:37:18;1.97;;;1.73;;
21806;SDS011;11065;50.786;7.840;2022-09-27T06:39:44;3.53;;;1.67;;
21806;SDS011;11065;50.786;7.840;2022-09-27T06:42:50;5.53;;;1.93;;
21806;SDS011;11065;50.786;7.840;2022-09-27T06:45:40;2.77;;;1.53;;
21806;SDS011;11065;50.786;7.840;2022-09-27T06:48:40;2.00;;;1.10;;
21806;SDS011;11065;50.786;7.840;2022-09-27T06:51:14;2.80;;;1.50;;
21806;SDS011;11065;50.786;7.840;2022-09-27T06:53:42;3.70;;;1.60;;
21806;SDS011;11065;50.786;7.840;2022-09-27T06:56:08;2.63;;;1.37;;
21806;SDS011;11065;50.786;7.840;2022-09-27T06:58:47;3.67;;;1.70;;
21806;SDS011;11065;50.786;7.840;2022-09-27T07:01:42;3.37;;;1.57;;
21806;SDS011;11065;50.786;7.840;2022-09-27T07:04:30;3.87;;;1.50;;
21806;SDS011;11065;50.786;7.840;2022-09-27T07:06:58;3.67;;;1.10;;
21806;SDS011;11065;50.786;7.840;2022-09-27T07:09:29;3.33;;;1.40;;
21806;SDS011;11065;50.786;7.840;2022-09-27T07:11:56;2.67;;;1.30;;
21806;SDS011;11065;50.786;7.840;2022-09-27T07:14:24;3.23;;;1.50;;
21806;SDS011;11065;50.786;7.840;2022-09-27T07:16:52;1.53;;;1.00;;
21806;SDS011;11065;50.786;7.840;2022-09-27T07:19:19;2.30;;;1.30;;
21806;SDS011;11065;50.786;7.840;2022-09-27T07:21:49;2.63;;;1.27;;
21806;SDS011;11065;50.786;7.840;2022-09-27T07:24:17;2.57;;;1.07;;
21806;SDS011;11065;50.786;7.840;2022-09-27T07:26:46;2.83;;;1.30;;
21806;SDS011;11065;50.786;7.840;2022-09-27T07:29:14;3.17;;;1.20;;
21806;SDS011;11065;50.786;7.840;2022-09-27T07:31:42;1.90;;;0.97;;
21806;SDS011;11065;50.786;7.840;2022-09-27T07:34:09;1.80;;;1.00;;
21806;SDS011;11065;50.786;7.840;2022-09-27T07:36:36;4.13;;;1.30;;
21806;SDS011;11065;50.786;7.840;2022-09-27T07:39:03;2.77;;;1.13;;
21806;SDS011;11065;50.786;7.840;2022-09-27T07:41:32;2.30;;;1.10;;
21806;SDS011;11065;50.786;7.840;2022-09-27T07:43:59;2.80;;;1.13;;
21806;SDS011;11065;50.786;7.840;2022-09-27T07:46:28;2.93;;;1.30;;
21806;SDS011;11065;50.786;7.840;2022-09-27T07:49:06;3.37;;;1.20;;
21806;SDS011;11065;50.786;7.840;2022-09-27T07:51:33;1.77;;;0.83;;
21806;SDS011;11065;50.786;7.840;2022-09-27T07:54:06;2.83;;;0.87;;
21806;SDS011;11065;50.786;7.840;2022-09-27T07:56:34;2.17;;;0.90;;
21806;SDS011;11065;50.786;7.840;2022-09-27T07:59:03;1.90;;;1.10;;
21806;SDS011;11065;50.786;7.840;2022-09-27T08:01:29;1.80;;;0.80;;
21806;SDS011;11065;50.786;7.840;2022-09-27T08:03:57;2.37;;;0.83;;
21806;SDS011;11065;50.786;7.840;2022-09-27T08:06:24;2.07;;;0.97;;
21806;SDS011;11065;50.786;7.840;2022-09-27T08:08:51;3.10;;;0.90;;
21806;SDS011;11065;50.786;7.840;2022-09-27T08:11:20;2.67;;;0.90;;
21806;SDS011;11065;50.786;7.840;2022-09-27T08:13:48;1.83;;;0.83;;
21806;SDS011;11065;50.786;7.840;2022-09-27T08:16:20;1.53;;;0.90;;
21806;SDS011;11065;50.786;7.840;2022-09-27T08:19:06;2.90;;;0.83;;
21806;SDS011;11065;50.786;7.840;2022-09-27T08:21:56;1.80;;;0.80;;
21806;SDS011;11065;50.786;7.840;2022-09-27T08:24:29;2.50;;;0.93;;
21806;SDS011;11065;50.786;7.840;2022-09-27T08:27:19;1.73;;;0.80;;
21806;SDS011;11065;50.786;7.840;2022-09-27T08:29:55;2.57;;;0.80;;
21806;SDS011;11065;50.786;7.840;2022-09-27T08:32:22;1.43;;;0.80;;
21806;SDS011;11065;50.786;7.840;2022-09-27T08:34:51;2.87;;;0.80;;
21806;SDS011;11065;50.786;7.840;2022-09-27T08:37:20;1.60;;;1.00;;
21806;SDS011;11065;50.786;7.840;2022-09-27T08:39:47;2.37;;;0.80;;
21806;SDS011;11065;50.786;7.840;2022-09-27T08:45:12;3.10;;;0.90;;
21806;SDS011;11065;50.786;7.840;2022-09-27T08:47:46;1.03;;;0.70;;
21806;SDS011;11065;50.786;7.840;2022-09-27T08:55:42;1.00;;;0.40;;
21806;SDS011;11065;50.786;7.840;2022-09-27T08:58:34;0.63;;;0.50;;
21806;SDS011;11065;50.786;7.840;2022-09-27T09:01:19;2.20;;;0.50;;
21806;SDS011;11065;50.786;7.840;2022-09-27T09:04:00;0.93;;;0.50;;
21806;SDS011;11065;50.786;7.840;2022-09-27T09:06:33;1.40;;;0.77;;
21806;SDS011;11065;50.786;7.840;2022-09-27T09:15:21;1.13;;;0.60;;
21806;SDS011;11065;50.786;7.840;2022-09-27T09:21:07;1.50;;;0.50;;
21806;SDS011;11065;50.786;7.840;2022-09-27T09:24:01;1.07;;;0.40;;
21806;SDS011;11065;50.786;7.840;2022-09-27T09:32:03;2.73;;;0.50;;
21806;SDS011;11065;50.786;7.840;2022-09-27T09:35:01;0.97;;;0.50;;
21806;SDS011;11065;50.786;7.840;2022-09-27T09:37:36;1.23;;;0.40;;
21806;SDS011;11065;50.786;7.840;2022-09-27T09:40:23;0.70;;;0.40;;
21806;SDS011;11065;50.786;7.840;2022-09-27T09:43:00;1.00;;;0.30;;
21806;SDS011;11065;50.786;7.840;2022-09-27T09:45:58;0.40;;;0.40;;
21806;SDS011;11065;50.786;7.840;2022-09-27T09:48:52;1.17;;;0.30;;
21806;SDS011;11065;50.786;7.840;2022-09-27T09:51:28;1.00;;;0.30;;
21806;SDS011;11065;50.786;7.840;2022-09-27T09:57:17;0.40;;;0.20;;
21806;SDS011;11065;50.786;7.840;2022-09-27T09:59:56;0.90;;;0.47;;
21806;SDS011;11065;50.786;7.840;2022-09-27T10:05:08;0.80;;;0.40;;
21806;SDS011;11065;50.786;7.840;2022-09-27T10:07:42;1.17;;;0.30;;
21806;SDS011;11065;50.786;7.840;2022-09-27T10:10:13;0.80;;;0.40;;
21806;SDS011;11065;50.786;7.840;2022-09-27T10:13:01;1.67;;;0.50;;
21806;SDS011;11065;50.786;7.840;2022-09-27T10:15:32;1.07;;;0.30;;
21806;SDS011;11065;50.786;7.840;2022-09-27T10:18:00;1.60;;;0.40;;
21806;SDS011;11065;50.786;7.840;2022-09-27T10:20:43;0.60;;;0.40;;
21806;SDS011;11065;50.786;7.840;2022-09-27T10:23:16;2.03;;;0.30;;
21806;SDS011;11065;50.786;7.840;2022-09-27T10:26:12;1.73;;;0.30;;
21806;SDS011;11065;50.786;7.840;2022-09-27T10:28:43;0.67;;;0.40;;
21806;SDS011;11065;50.786;7.840;2022-09-27T10:31:13;1.90;;;0.40;;
21806;SDS011;11065;50.786;7.840;2022-09-27T10:34:03;0.77;;;0.30;;
21806;SDS011;11065;50.786;7.840;2022-09-27T10:36:41;1.13;;;0.40;;
21806;SDS011;11065;50.786;7.840;2022-09-27T10:39:08;1.87;;;0.40;;
21806;SDS011;11065;50.786;7.840;2022-09-27T10:41:47;0.57;;;0.30;;
21806;SDS011;11065;50.786;7.840;2022-09-27T10:44:24;0.70;;;0.33;;
21806;SDS011;11065;50.786;7.840;2022-09-27T10:47:05;1.83;;;0.50;;
21806;SDS011;11065;50.786;7.840;2022-09-27T10:49:45;2.30;;;0.30;;
21806;SDS011;11065;50.786;7.840;2022-09-27T10:52:26;0.87;;;0.20;;
21806;SDS011;11065;50.786;7.840;2022-09-27T10:57:23;0.37;;;0.30;;
21806;SDS011;11065;50.786;7.840;2022-09-27T10:59:54;0.93;;;0.20;;
21806;SDS011;11065;50.786;7.840;2022-09-27T11:02:29;0.80;;;0.30;;
21806;SDS011;11065;50.786;7.840;2022-09-27T11:05:11;1.47;;;0.30;;
21806;SDS011;11065;50.786;7.840;2022-09-27T11:07:48;0.63;;;0.27;;
21806;SDS011;11065;50.786;7.840;2022-09-27T11:10:39;0.73;;;0.33;;
21806;SDS011;11065;50.786;7.840;2022-09-27T11:18:30;2.53;;;0.60;;
21806;SDS011;11065;50.786;7.840;2022-09-27T11:30:03;0.97;;;0.37;;
21806;SDS011;11065;50.786;7.840;2022-09-27T11:41:39;1.03;;;0.33;;
21806;SDS011;11065;50.786;7.840;2022-09-27T11:46:43;1.33;;;0.40;;
21806;SDS011;11065;50.786;7.840;2022-09-27T11:49:28;0.93;;;0.60;;
21806;SDS011;11065;50.786;7.840;2022-09-27T11:52:43;0.20;;;0.20;;
21806;SDS011;11065;50.786;7.840;2022-09-27T11:55:38;1.40;;;0.50;;
21806;SDS011;11065;50.786;7.840;2022-09-27T12:01:08;0.83;;;0.50;;
21806;SDS011;11065;50.786;7.840;2022-09-27T12:04:03;1.17;;;0.60;;
21806;SDS011;11065;50.786;7.840;2022-09-27T12:09:34;1.63;;;0.50;;
21806;SDS011;11065;50.786;7.840;2022-09-27T12:17:18;0.67;;;0.43;;
21806;SDS011;11065;50.786;7.840;2022-09-27T12:19:56;1.07;;;0.50;;
21806;SDS011;11065;50.786;7.840;2022-09-27T12:25:40;0.80;;;0.57;;
21806;SDS011;11065;50.786;7.840;2022-09-27T12:28:34;1.57;;;0.47;;
21806;SDS011;11065;50.786;7.840;2022-09-27T12:31:28;1.17;;;0.53;;
21806;SDS011;11065;50.786;7.840;2022-09-27T12:36:32;1.83;;;0.63;;
21806;SDS011;11065;50.786;7.840;2022-09-27T12:41:43;1.50;;;0.57;;
21806;SDS011;11065;50.786;7.840;2022-09-27T12:44:24;1.33;;;0.50;;
21806;SDS011;11065;50.786;7.840;2022-09-27T12:47:02;0.77;;;0.50;;
21806;SDS011;11065;50.786;7.840;2022-09-27T12:49:41;2.30;;;0.70;;
21806;SDS011;11065;50.786;7.840;2022-09-27T12:52:12;2.53;;;0.53;;
21806;SDS011;11065;50.786;7.840;2022-09-27T12:55:00;1.07;;;0.50;;
21806;SDS011;11065;50.786;7.840;2022-09-27T12:58:06;1.10;;;0.47;;
21806;SDS011;11065;50.786;7.840;2022-09-27T13:00:44;1.67;;;0.50;;
21806;SDS011;11065;50.786;7.840;2022-09-27T13:06:30;2.13;;;0.50;;
21806;SDS011;11065;50.786;7.840;2022-09-27T13:09:27;0.90;;;0.50;;
21806;SDS011;11065;50.786;7.840;2022-09-27T13:12:06;1.30;;;0.50;;
21806;SDS011;11065;50.786;7.840;2022-09-27T13:14:49;0.90;;;0.50;;
21806;SDS011;11065;50.786;7.840;2022-09-27T13:22:59;1.33;;;0.60;;
21806;SDS011;11065;50.786;7.840;2022-09-27T13:31:16;0.90;;;0.50;;
21806;SDS011;11065;50.786;7.840;2022-09-27T13:34:55;0.47;;;0.40;;
21806;SDS011;11065;50.786;7.840;2022-09-27T13:37:33;0.70;;;0.40;;
21806;SDS011;11065;50.786;7.840;2022-09-27T13:46:05;1.80;;;0.70;;
21806;SDS011;11065;50.786;7.840;2022-09-27T13:48:57;0.87;;;0.53;;
21806;SDS011;11065;50.786;7.840;2022-09-27T13:52:01;1.60;;;0.50;;
21806;SDS011;11065;50.786;7.840;2022-09-27T13:54:51;2.97;;;1.20;;
21806;SDS011;11065;50.786;7.840;2022-09-27T14:00:47;2.30;;;0.73;;
21806;SDS011;11065;50.786;7.840;2022-09-27T14:06:25;0.80;;;0.60;;
21806;SDS011;11065;50.786;7.840;2022-09-27T14:08:58;2.37;;;0.80;;
21806;SDS011;11065;50.786;7.840;2022-09-27T14:11:36;2.20;;;0.80;;
21806;SDS011;11065;50.786;7.840;2022-09-27T14:14:06;2.47;;;0.80;;
21806;SDS011;11065;50.786;7.840;2022-09-27T14:16:48;1.30;;;0.70;;
21806;SDS011;11065;50.786;7.840;2022-09-27T14:19:19;2.40;;;0.90;;
21806;SDS011;11065;50.786;7.840;2022-09-27T14:21:54;1.33;;;0.80;;
21806;SDS011;11065;50.786;7.840;2022-09-27T14:27:21;2.63;;;0.80;;
21806;SDS011;11065;50.786;7.840;2022-09-27T14:29:58;1.47;;;1.10;;
21806;SDS011;11065;50.786;7.840;2022-09-27T14:32:44;2.87;;;0.93;;
21806;SDS011;11065;50.786;7.840;2022-09-27T14:35:18;2.07;;;0.80;;
21806;SDS011;11065;50.786;7.840;2022-09-27T14:38:07;1.50;;;0.70;;
21806;SDS011;11065;50.786;7.840;2022-09-27T14:41:03;2.97;;;0.80;;
21806;SDS011;11065;50.786;7.840;2022-09-27T14:43:32;1.10;;;0.70;;
21806;SDS011;11065;50.786;7.840;2022-09-27T14:46:02;1.33;;;0.90;;
21806;SDS011;11065;50.786;7.840;2022-09-27T14:48:35;1.93;;;0.93;;
21806;SDS011;11065;50.786;7.840;2022-09-27T14:53:41;1.83;;;1.10;;
21806;SDS011;11065;50.786;7.840;2022-09-27T14:56:14;2.17;;;0.90;;
21806;SDS011;11065;50.786;7.840;2022-09-27T14:58:51;1.43;;;0.90;;
21806;SDS011;11065;50.786;7.840;2022-09-27T15:01:27;1.80;;;0.87;;
21806;SDS011;11065;50.786;7.840;2022-09-27T15:04:05;1.90;;;0.77;;
21806;SDS011;11065;50.786;7.840;2022-09-27T15:06:36;1.10;;;0.70;;
21806;SDS011;11065;50.786;7.840;2022-09-27T15:09:04;2.23;;;0.60;;
21806;SDS011;11065;50.786;7.840;2022-09-27T15:11:32;0.83;;;0.50;;
21806;SDS011;11065;50.786;7.840;2022-09-27T15:14:00;0.97;;;0.50;;
21806;SDS011;11065;50.786;7.840;2022-09-27T15:16:28;2.13;;;0.30;;
21806;SDS011;11065;50.786;7.840;2022-09-27T15:19:12;0.47;;;0.30;;
21806;SDS011;11065;50.786;7.840;2022-09-27T15:21:47;0.67;;;0.30;;
21806;SDS011;11065;50.786;7.840;2022-09-27T15:27:11;1.37;;;0.40;;
21806;SDS011;11065;50.786;7.840;2022-09-27T15:29:48;0.67;;;0.43;;
21806;SDS011;11065;50.786;7.840;2022-09-27T15:32:23;2.27;;;0.80;;
21806;SDS011;11065;50.786;7.840;2022-09-27T15:34:54;2.97;;;1.40;;
21806;SDS011;11065;50.786;7.840;2022-09-27T15:39:53;2.47;;;0.90;;
21806;SDS011;11065;50.786;7.840;2022-09-27T15:42:22;1.30;;;0.53;;
21806;SDS011;11065;50.786;7.840;2022-09-27T15:44:49;1.23;;;0.60;;
21806;SDS011;11065;50.786;7.840;2022-09-27T15:49:57;0.77;;;0.57;;
21806;SDS011;11065;50.786;7.840;2022-09-27T15:55:18;1.10;;;0.70;;
21806;SDS011;11065;50.786;7.840;2022-09-27T15:57:48;1.13;;;0.57;;
21806;SDS011;11065;50.786;7.840;2022-09-27T16:00:27;2.73;;;0.50;;
21806;SDS011;11065;50.786;7.840;2022-09-27T16:02:55;1.53;;;0.63;;
21806;SDS011;11065;50.786;7.840;2022-09-27T16:05:22;1.87;;;0.50;;
21806;SDS011;11065;50.786;7.840;2022-09-27T16:07:49;2.27;;;0.80;;
21806;SDS011;11065;50.786;7.840;2022-09-27T16:10:17;2.00;;;0.73;;
21806;SDS011;11065;50.786;7.840;2022-09-27T16:12:45;2.00;;;1.30;;
21806;SDS011;11065;50.786;7.840;2022-09-27T16:15:13;2.80;;;1.20;;
21806;SDS011;11065;50.786;7.840;2022-09-27T16:17:40;1.97;;;0.80;;
21806;SDS011;11065;50.786;7.840;2022-09-27T16:22:50;1.13;;;0.70;;
21806;SDS011;11065;50.786;7.840;2022-09-27T16:25:18;1.30;;;0.73;;
21806;SDS011;11065;50.786;7.840;2022-09-27T16:27:46;2.47;;;1.23;;
21806;SDS011;11065;50.786;7.840;2022-09-27T16:30:13;3.67;;;2.07;;
21806;SDS011;11065;50.786;7.840;2022-09-27T16:32:41;4.50;;;2.87;;
21806;SDS011;11065;50.786;7.840;2022-09-27T16:35:10;2.77;;;1.60;;
21806;SDS011;11065;50.786;7.840;2022-09-27T16:37:38;2.53;;;1.20;;
21806;SDS011;11065;50.786;7.840;2022-09-27T16:40:06;2.50;;;1.30;;
21806;SDS011;11065;50.786;7.840;2022-09-27T16:42:33;2.30;;;1.10;;
21806;SDS011;11065;50.786;7.840;2022-09-27T16:45:01;2.60;;;0.90;;
21806;SDS011;11065;50.786;7.840;2022-09-27T16:47:35;1.97;;;0.97;;
21806;SDS011;11065;50.786;7.840;2022-09-27T16:50:03;3.43;;;0.90;;
21806;SDS011;11065;50.786;7.840;2022-09-27T16:52:48;1.20;;;0.70;;
21806;SDS011;11065;50.786;7.840;2022-09-27T16:55:17;1.23;;;0.70;;
21806;SDS011;11065;50.786;7.840;2022-09-27T16:57:46;3.20;;;0.90;;
21806;SDS011;11065;50.786;7.840;2022-09-27T17:00:13;1.63;;;0.63;;
21806;SDS011;11065;50.786;7.840;2022-09-27T17:02:40;1.60;;;0.70;;
21806;SDS011;11065;50.786;7.840;2022-09-27T17:05:09;2.27;;;0.70;;
21806;SDS011;11065;50.786;7.840;2022-09-27T17:07:36;2.17;;;0.77;;
21806;SDS011;11065;50.786;7.840;2022-09-27T17:10:03;1.67;;;0.90;;
21806;SDS011;11065;50.786;7.840;2022-09-27T17:12:31;5.93;;;3.80;;
21806;SDS011;11065;50.786;7.840;2022-09-27T17:14:58;4.57;;;2.17;;
21806;SDS011;11065;50.786;7.840;2022-09-27T17:17:25;3.63;;;1.30;;
21806;SDS011;11065;50.786;7.840;2022-09-27T17:19:51;1.63;;;0.97;;
21806;SDS011;11065;50.786;7.840;2022-09-27T17:22:18;2.57;;;1.07;;
21806;SDS011;11065;50.786;7.840;2022-09-27T17:24:45;2.50;;;1.37;;
21806;SDS011;11065;50.786;7.840;2022-09-27T17:27:12;3.53;;;1.50;;
21806;SDS011;11065;50.786;7.840;2022-09-27T17:29:38;2.30;;;0.87;;
21806;SDS011;11065;50.786;7.840;2022-09-27T17:32:05;2.30;;;0.90;;
21806;SDS011;11065;50.786;7.840;2022-09-27T17:34:34;2.87;;;0.63;;
21806;SDS011;11065;50.786;7.840;2022-09-27T17:37:01;1.67;;;0.50;;
21806;SDS011;11065;50.786;7.840;2022-09-27T17:39:28;2.40;;;0.60;;
21806;SDS011;11065;50.786;7.840;2022-09-27T17:41:55;0.73;;;0.50;;
21806;SDS011;11065;50.786;7.840;2022-09-27T17:44:23;1.00;;;0.50;;
21806;SDS011;11065;50.786;7.840;2022-09-27T17:46:52;1.17;;;0.70;;
21806;SDS011;11065;50.786;7.840;2022-09-27T17:49:38;1.00;;;0.50;;
21806;SDS011;11065;50.786;7.840;2022-09-27T17:52:24;1.20;;;0.50;;
21806;SDS011;11065;50.786;7.840;2022-09-27T17:54:52;1.33;;;0.70;;
21806;SDS011;11065;50.786;7.840;2022-09-27T17:57:20;2.10;;;0.50;;
21806;SDS011;11065;50.786;7.840;2022-09-27T17:59:47;2.40;;;0.87;;
21806;SDS011;11065;50.786;7.840;2022-09-27T18:02:14;1.80;;;0.90;;
21806;SDS011;11065;50.786;7.840;2022-09-27T18:04:41;2.57;;;0.80;;
21806;SDS011;11065;50.786;7.840;2022-09-27T18:07:08;1.83;;;0.73;;
21806;SDS011;11065;50.786;7.840;2022-09-27T18:09:38;1.90;;;0.80;;
21806;SDS011;11065;50.786;7.840;2022-09-27T18:12:05;3.27;;;0.90;;
21806;SDS011;11065;50.786;7.840;2022-09-27T18:14:32;1.77;;;0.90;;
21806;SDS011;11065;50.786;7.840;2022-09-27T18:17:00;1.50;;;0.70;;
21806;SDS011;11065;50.786;7.840;2022-09-27T18:19:26;2.93;;;1.07;;
21806;SDS011;11065;50.786;7.840;2022-09-27T18:21:53;1.10;;;0.80;;